Time;durP1;ratioP1;P1;durP2;ratioP2;P2;SDS_P1;SDS_P2;PMS_P1;PMS_P2;Temp;Humidity;BMP_temperature;BMP_pressure;BME280_temperature;BME280_humidity;BME280_pressure;Samples;Min_cycle;Max_cycle;Signal;HPM_P1;HPM_P2
2022/07/07 04:20:22;;;;;;;2.78;0.30;;;20.10;68.80;;;;;;4756391;30;20055;-75
2022/07/07 04:22:48;;;;;;;2.83;0.55;;;20.10;68.90;;;;;;4772784;30;20455;-76
2022/07/07 04:25:14;;;;;;;2.08;0.60;;;20.10;68.90;;;;;;4758277;30;20501;-74
2022/07/07 04:27:40;;;;;;;1.00;0.40;;;20.10;68.90;;;;;;4758550;30;20070;-74
2022/07/07 04:30:06;;;;;;;3.17;0.63;;;20.10;68.90;;;;;;4758453;30;20055;-74
2022/07/07 04:32:32;;;;;;;3.33;0.55;;;20.10;68.90;;;;;;4773720;30;20138;-75
2022/07/07 04:34:58;;;;;;;3.35;0.70;;;20.10;68.90;;;;;;4757897;30;20143;-73
2022/07/07 04:37:23;;;;;;;3.95;0.68;;;20.10;69.00;;;;;;4773487;30;20088;-77
2022/07/07 04:39:49;;;;;;;3.67;0.70;;;20.10;69.00;;;;;;4773891;30;20052;-75
2022/07/07 04:42:15;;;;;;;3.20;0.63;;;20.20;69.20;;;;;;4773799;30;20460;-77
2022/07/07 04:44:40;;;;;;;6.18;1.08;;;20.10;69.50;;;;;;4757931;30;20051;-74
2022/07/07 04:47:06;;;;;;;6.55;1.40;;;20.20;69.30;;;;;;4769431;30;20051;-74
2022/07/07 04:49:32;;;;;;;9.15;1.17;;;20.20;68.90;;;;;;4772149;30;20135;-77
2022/07/07 04:51:57;;;;;;;9.95;1.40;;;20.20;68.70;;;;;;4755878;30;20056;-74
2022/07/07 04:54:23;;;;;;;9.00;1.25;;;20.20;68.70;;;;;;4759062;30;20051;-75
2022/07/07 04:56:49;;;;;;;7.65;1.20;;;20.10;68.70;;;;;;4758450;30;20064;-75
2022/07/07 04:59:15;;;;;;;8.57;1.27;;;20.10;68.80;;;;;;4760440;30;20480;-76
2022/07/07 05:01:40;;;;;;;12.40;1.35;;;20.10;68.90;;;;;;4756790;30;20122;-75
2022/07/07 05:04:06;;;;;;;14.63;1.90;;;20.10;68.90;;;;;;4768880;30;20044;-71
2022/07/07 05:06:32;;;;;;;7.78;1.27;;;20.10;68.90;;;;;;4758845;30;20621;-75
2022/07/07 05:08:58;;;;;;;7.38;1.20;;;20.10;68.90;;;;;;4760687;30;20036;-77
2022/07/07 05:11:23;;;;;;;17.42;2.00;;;20.10;68.90;;;;;;4767474;30;20052;-75
2022/07/07 05:13:49;;;;;;;11.85;1.52;;;20.10;69.00;;;;;;4770491;30;20479;-76
2022/07/07 05:16:15;;;;;;;14.23;1.95;;;20.10;69.00;;;;;;4767293;30;20055;-77
2022/07/07 05:18:41;;;;;;;16.77;2.22;;;20.10;69.10;;;;;;4762783;30;20070;-76
2022/07/07 05:21:06;;;;;;;18.48;2.90;;;20.00;69.40;;;;;;4762566;30;20376;-76
2022/07/07 05:23:32;;;;;;;12.25;1.50;;;20.10;69.70;;;;;;4766521;30;20353;-77
2022/07/07 05:25:58;;;;;;;12.68;2.05;;;20.10;69.40;;;;;;4758100;30;20040;-74
2022/07/07 05:28:24;;;;;;;23.42;2.90;;;20.10;69.20;;;;;;4751408;30;20472;-75
2022/07/07 05:30:50;;;;;;;12.55;2.13;;;20.10;69.40;;;;;;4763896;30;20368;-75
2022/07/07 05:33:16;;;;;;;16.52;2.20;;;20.00;69.50;;;;;;4760254;30;20056;-76
2022/07/07 05:35:41;;;;;;;11.05;1.48;;;20.00;69.40;;;;;;4753797;30;20091;-75
2022/07/07 05:38:07;;;;;;;12.75;1.20;;;20.00;69.30;;;;;;4743137;30;20058;-77
2022/07/07 05:40:33;;;;;;;10.77;1.23;;;20.00;69.40;;;;;;4765468;30;20460;-78
2022/07/07 05:42:59;;;;;;;6.50;1.15;;;20.10;69.30;;;;;;4749584;30;20135;-76
2022/07/07 05:45:25;;;;;;;7.20;1.00;;;20.00;69.20;;;;;;4743345;30;20500;-76
2022/07/07 05:47:50;;;;;;;5.30;1.25;;;20.00;69.20;;;;;;4753717;30;20056;-76
2022/07/07 05:50:16;;;;;;;15.25;1.55;;;20.00;69.20;;;;;;4768334;30;20387;-76
2022/07/07 05:52:42;;;;;;;9.05;1.00;;;20.00;69.30;;;;;;4764405;30;20110;-75
2022/07/07 05:55:08;;;;;;;18.75;1.58;;;20.00;69.30;;;;;;4750199;30;20478;-75
2022/07/07 05:57:34;;;;;;;11.65;1.27;;;20.00;69.50;;;;;;4757777;30;20338;-74
2022/07/07 06:00:00;;;;;;;13.23;1.55;;;20.10;69.70;;;;;;4769026;30;20082;-79
2022/07/07 06:02:25;;;;;;;10.80;2.10;;;20.10;69.70;;;;;;4745367;30;20075;-74
2022/07/07 06:04:51;;;;;;;11.85;1.10;;;20.10;69.50;;;;;;4762930;30;20117;-77
2022/07/07 06:07:17;;;;;;;3.65;0.40;;;20.00;69.40;;;;;;4750985;30;20376;-76
2022/07/07 06:09:43;;;;;;;3.67;0.75;;;20.00;68.70;;;;;;4757408;30;20070;-76
2022/07/07 06:12:09;;;;;;;5.30;0.40;;;19.80;68.80;;;;;;4768069;30;20068;-76
2022/07/07 06:14:35;;;;;;;2.92;0.40;;;19.60;69.20;;;;;;4746187;30;20048;-76
2022/07/07 06:17:01;;;;;;;4.13;0.65;;;19.40;69.80;;;;;;4731277;30;20372;-77
2022/07/07 06:19:27;;;;;;;6.03;0.88;;;19.40;70.60;;;;;;4752155;30;20067;-75
2022/07/07 06:21:52;;;;;;;4.10;0.63;;;19.20;71.10;;;;;;4757130;30;20070;-77
2022/07/07 06:24:18;;;;;;;4.80;0.75;;;19.20;72.00;;;;;;4766230;30;20044;-74
2022/07/07 06:26:44;;;;;;;4.70;0.70;;;19.20;72.80;;;;;;4762867;30;20375;-72
2022/07/07 06:29:10;;;;;;;2.80;0.80;;;19.20;72.80;;;;;;4763294;30;20132;-74
2022/07/07 06:31:36;;;;;;;5.32;0.75;;;19.30;72.70;;;;;;4755241;30;20414;-73
2022/07/07 06:34:02;;;;;;;7.07;0.80;;;19.30;72.30;;;;;;4767867;30;20495;-75
2022/07/07 06:36:28;;;;;;;7.65;0.80;;;19.30;72.30;;;;;;4760131;30;20079;-75
2022/07/07 06:38:54;;;;;;;4.55;0.90;;;19.30;72.30;;;;;;4762076;30;20157;-73
2022/07/07 06:41:32;;;;;;;4.40;0.75;;;19.30;72.20;;;;;;4766961;30;20051;-75
2022/07/07 06:43:58;;;;;;;4.82;1.23;;;19.30;71.90;;;;;;4757013;30;20059;-74
2022/07/07 06:46:23;;;;;;;4.43;0.88;;;19.40;71.80;;;;;;4750333;30;20048;-74
2022/07/07 06:48:49;;;;;;;4.55;0.75;;;19.40;71.70;;;;;;4760042;30;20103;-74
2022/07/07 06:51:15;;;;;;;4.68;0.95;;;19.40;71.60;;;;;;4766103;30;20051;-75
2022/07/07 06:53:40;;;;;;;6.55;1.08;;;19.40;71.50;;;;;;4741288;30;20368;-75
2022/07/07 06:56:06;;;;;;;4.78;1.08;;;19.50;71.40;;;;;;4768053;30;20052;-76
2022/07/07 06:58:32;;;;;;;6.45;0.90;;;19.50;71.30;;;;;;4760821;30;20418;-76
2022/07/07 07:00:58;;;;;;;4.55;0.75;;;19.50;71.20;;;;;;4761436;30;20059;-74
2022/07/07 07:03:24;;;;;;;8.82;1.52;;;19.50;71.20;;;;;;4762328;30;20141;-77
2022/07/07 07:05:50;;;;;;;10.43;1.35;;;19.50;71.10;;;;;;4737906;30;20421;-74
2022/07/07 07:08:15;;;;;;;8.32;1.92;;;19.50;71.00;;;;;;4758394;30;20047;-75
2022/07/07 07:10:41;;;;;;;5.05;0.95;;;19.50;70.90;;;;;;4763301;30;20052;-75
2022/07/07 07:13:07;;;;;;;11.52;1.42;;;19.50;70.80;;;;;;4749407;30;20392;-74
2022/07/07 07:15:32;;;;;;;5.72;0.93;;;19.50;70.80;;;;;;4741428;30;20044;-74
2022/07/07 07:17:58;;;;;;;4.50;0.73;;;19.60;70.80;;;;;;4768272;30;20056;-74
2022/07/07 07:20:24;;;;;;;3.50;0.80;;;19.60;70.90;;;;;;4743713;30;20545;-73
2022/07/07 07:22:50;;;;;;;8.70;1.50;;;19.60;70.90;;;;;;4761261;30;20060;-76
2022/07/07 07:25:17;;;;;;;5.07;0.73;;;19.60;70.90;;;;;;4764202;30;20052;-73
2022/07/07 07:27:43;;;;;;;4.30;0.73;;;19.60;71.70;;;;;;4755682;30;20048;-73
2022/07/07 07:30:09;;;;;;;8.98;1.15;;;19.70;71.20;;;;;;4750811;30;20044;-76
2022/07/07 07:32:35;;;;;;;7.13;0.82;;;19.70;71.70;;;;;;4740866;30;20048;-77
2022/07/07 07:35:01;;;;;;;4.05;0.55;;;19.80;71.80;;;;;;4769407;30;20066;-75
2022/07/07 07:37:26;;;;;;;7.32;1.08;;;19.80;71.70;;;;;;4756685;30;20052;-75
2022/07/07 07:39:52;;;;;;;6.72;0.75;;;19.80;71.70;;;;;;4752081;30;20059;-75
2022/07/07 07:42:18;;;;;;;6.28;1.10;;;19.90;71.60;;;;;;4760543;30;20104;-75
2022/07/07 07:47:28;;;;;;;5.43;1.15;;;19.90;71.50;;;;;;4744670;30;20068;-76
2022/07/07 07:49:53;;;;;;;7.65;1.25;;;19.90;71.50;;;;;;4764415;30;20066;-77
2022/07/07 07:52:19;;;;;;;6.40;0.90;;;19.90;71.30;;;;;;4760774;30;20099;-79
2022/07/07 07:54:46;;;;;;;6.43;0.70;;;19.90;71.30;;;;;;4768212;30;20376;-79
2022/07/07 07:57:12;;;;;;;6.03;1.20;;;19.90;71.20;;;;;;4770828;30;20062;-77
2022/07/07 07:59:38;;;;;;;9.20;1.25;;;19.90;71.20;;;;;;4762093;30;20052;-78
2022/07/07 08:02:03;;;;;;;6.60;1.00;;;20.00;71.20;;;;;;4755107;30;20170;-76
2022/07/07 08:04:29;;;;;;;4.13;0.90;;;20.00;71.10;;;;;;4755306;30;20091;-75
2022/07/07 08:06:55;;;;;;;3.70;0.95;;;20.00;71.10;;;;;;4754434;30;20066;-77
2022/07/07 08:09:20;;;;;;;8.82;1.00;;;20.00;70.90;;;;;;4756391;30;20048;-76
2022/07/07 08:11:46;;;;;;;6.80;0.93;;;20.00;70.70;;;;;;4755135;30;20089;-77
2022/07/07 08:14:12;;;;;;;6.70;1.00;;;20.10;70.70;;;;;;4755861;30;20059;-78
2022/07/07 08:16:38;;;;;;;5.25;0.90;;;20.00;70.70;;;;;;4755205;30;20149;-77
2022/07/07 08:19:03;;;;;;;8.85;1.23;;;20.10;70.70;;;;;;4755412;30;20060;-79
2022/07/07 08:21:29;;;;;;;5.53;1.20;;;20.00;70.70;;;;;;4718574;30;1134153;-79
2022/07/07 08:23:55;;;;;;;6.32;1.75;;;20.00;70.70;;;;;;4764202;30;20146;-79
2022/07/07 08:26:21;;;;;;;4.70;0.70;;;20.10;70.80;;;;;;4756146;30;20456;-79
2022/07/07 08:28:47;;;;;;;6.38;1.33;;;20.10;70.70;;;;;;4742909;30;20113;-77
2022/07/07 08:31:13;;;;;;;7.15;1.13;;;20.10;70.70;;;;;;4757474;30;20060;-77
2022/07/07 08:33:39;;;;;;;9.43;1.10;;;20.10;70.70;;;;;;4758146;30;20067;-79
2022/07/07 08:36:05;;;;;;;6.53;1.13;;;20.10;70.60;;;;;;4756177;30;20452;-77
2022/07/07 08:38:31;;;;;;;4.13;0.85;;;20.10;70.50;;;;;;4755762;30;20052;-79
2022/07/07 08:40:58;;;;;;;4.20;1.20;;;20.10;70.40;;;;;;4770600;30;20112;-78
2022/07/07 08:43:24;;;;;;;6.22;0.98;;;20.10;70.40;;;;;;4763955;30;20094;-76
2022/07/07 08:45:50;;;;;;;4.63;0.85;;;20.10;70.40;;;;;;4755383;30;20102;-78
2022/07/07 08:48:17;;;;;;;4.43;1.00;;;20.10;70.40;;;;;;4755911;30;20060;-79
2022/07/07 08:50:43;;;;;;;4.10;1.30;;;20.10;70.30;;;;;;4755175;30;20106;-76
2022/07/07 08:53:12;;;;;;;5.50;1.05;;;20.10;70.00;;;;;;4754975;30;20109;-77
2022/07/07 08:55:42;;;;;;;4.90;0.98;;;20.10;70.10;;;;;;4755350;30;20056;-77
2022/07/07 08:58:09;;;;;;;3.70;0.80;;;20.10;70.00;;;;;;4768941;30;20429;-78
2022/07/07 09:00:36;;;;;;;3.75;0.60;;;20.10;70.20;;;;;;4754836;30;20052;-77
2022/07/07 09:03:05;;;;;;;6.78;0.73;;;20.20;70.20;;;;;;4767827;30;20138;-78
2022/07/07 09:05:37;;;;;;;5.90;0.80;;;20.20;70.00;;;;;;4773022;30;20554;-78
2022/07/07 09:08:17;;;;;;;3.95;0.80;;;20.20;69.90;;;;;;4772820;30;20350;-78
2022/07/07 09:10:44;;;;;;;2.88;1.00;;;20.20;69.60;;;;;;4730568;30;20052;-79
2022/07/07 09:13:27;;;;;;;3.85;0.77;;;20.10;70.00;;;;;;4739449;30;20126;-79
2022/07/07 09:15:54;;;;;;;2.47;0.70;;;20.10;69.80;;;;;;4737995;30;20052;-77
2022/07/07 09:18:37;;;;;;;3.38;0.73;;;20.10;70.00;;;;;;4753703;30;20063;-78
2022/07/07 09:21:06;;;;;;;4.72;0.80;;;20.20;69.90;;;;;;4755222;30;20083;-79
2022/07/07 09:23:32;;;;;;;3.88;0.93;;;20.10;70.10;;;;;;4765645;30;20059;-78
2022/07/07 09:26:00;;;;;;;5.15;1.00;;;20.20;70.00;;;;;;4755128;30;20048;-79
2022/07/07 09:28:26;;;;;;;5.65;0.82;;;20.20;69.80;;;;;;4754156;30;20380;-76
2022/07/07 09:30:53;;;;;;;4.57;0.88;;;20.20;69.80;;;;;;4755395;30;20055;-78
2022/07/07 09:33:24;;;;;;;2.95;0.63;;;20.10;69.70;;;;;;4768004;30;20048;-78
2022/07/07 09:38:38;;;;;;;5.25;0.75;;;20.10;70.00;;;;;;4754745;30;20095;-78
2022/07/07 09:41:13;;;;;;;5.13;0.90;;;20.00;70.10;;;;;;4757021;30;20056;-77
2022/07/07 09:43:52;;;;;;;6.03;1.50;;;20.00;70.20;;;;;;4759009;30;20056;-78
2022/07/07 09:46:26;;;;;;;3.90;0.98;;;20.00;70.40;;;;;;4724609;30;20119;-77
2022/07/07 09:48:53;;;;;;;4.35;0.88;;;20.00;70.50;;;;;;4739535;30;20048;-78
2022/07/07 09:51:24;;;;;;;4.55;0.90;;;20.00;70.60;;;;;;4756956;30;20063;-78
2022/07/07 09:54:03;;;;;;;5.40;1.63;;;20.00;70.60;;;;;;4766972;30;20090;-78
2022/07/07 09:56:33;;;;;;;7.10;1.33;;;20.00;70.40;;;;;;4772179;30;20086;-78
2022/07/07 09:59:00;;;;;;;6.82;1.25;;;20.00;70.50;;;;;;4772049;30;20368;-77
2022/07/07 10:01:31;;;;;;;4.90;0.98;;;20.00;70.40;;;;;;4769289;30;20083;-78
2022/07/07 10:04:00;;;;;;;9.10;1.30;;;20.00;70.30;;;;;;4746071;30;20055;-79
2022/07/07 10:06:27;;;;;;;6.60;1.00;;;19.90;70.20;;;;;;4771527;30;20064;-78
2022/07/07 10:08:57;;;;;;;7.63;1.40;;;19.90;70.00;;;;;;4772111;30;20059;-80
2022/07/07 10:11:29;;;;;;;6.65;1.13;;;19.90;69.70;;;;;;4769124;30;20047;-79
2022/07/07 10:14:06;;;;;;;7.22;1.33;;;19.90;69.50;;;;;;4770322;30;20475;-76
2022/07/07 10:16:32;;;;;;;6.03;0.98;;;19.90;69.00;;;;;;4760879;30;20067;-79
2022/07/07 10:18:58;;;;;;;6.95;1.60;;;19.90;69.10;;;;;;4752841;30;20055;-79
2022/07/07 10:21:24;;;;;;;5.28;1.40;;;19.90;68.70;;;;;;4753042;30;20074;-79
2022/07/07 10:23:50;;;;;;;5.07;1.27;;;19.90;68.10;;;;;;4751253;30;20358;-78
2022/07/07 10:26:15;;;;;;;8.55;1.60;;;19.90;68.00;;;;;;4761469;30;20054;-77
2022/07/07 10:28:51;;;;;;;9.20;2.40;;;19.90;68.00;;;;;;4771560;30;20047;-78
2022/07/07 10:31:24;;;;;;;12.38;2.13;;;19.90;66.80;;;;;;4770389;30;20055;-77
2022/07/07 10:33:53;;;;;;;8.60;1.63;;;19.90;67.20;;;;;;4770996;30;20090;-77
2022/07/07 10:36:20;;;;;;;8.50;1.92;;;19.90;67.10;;;;;;4754463;30;20048;-79
2022/07/07 10:38:50;;;;;;;9.55;1.50;;;19.90;66.50;;;;;;4768359;30;20130;-76
2022/07/07 10:41:23;;;;;;;8.35;1.70;;;19.90;66.70;;;;;;4772279;30;20055;-77
2022/07/07 10:44:01;;;;;;;7.43;1.30;;;19.90;66.00;;;;;;4771780;30;20055;-79
2022/07/07 10:46:26;;;;;;;12.13;2.05;;;19.90;64.30;;;;;;4755090;30;20060;-78
2022/07/07 10:48:55;;;;;;;6.50;1.35;;;19.90;65.30;;;;;;4753821;30;20063;-79
2022/07/07 10:51:28;;;;;;;6.75;1.02;;;19.90;65.00;;;;;;4754031;30;20063;-77
2022/07/07 10:54:08;;;;;;;9.75;2.20;;;19.90;64.50;;;;;;4738284;30;20127;-78
2022/07/07 10:56:55;;;;;;;5.07;1.10;;;19.90;64.30;;;;;;4767056;30;20472;-80
2022/07/07 10:59:23;;;;;;;4.90;1.40;;;19.90;63.50;;;;;;4751500;30;20106;-78
2022/07/07 11:02:00;;;;;;;6.25;1.60;;;19.90;64.30;;;;;;4760175;30;20052;-78
2022/07/07 11:04:41;;;;;;;5.43;1.23;;;19.90;63.60;;;;;;4756629;30;20552;-80
2022/07/07 11:07:21;;;;;;;7.97;1.45;;;19.90;62.60;;;;;;4766644;30;20414;-77
2022/07/07 11:10:09;;;;;;;5.22;1.17;;;19.90;64.00;;;;;;4739181;30;20059;-77
2022/07/07 11:12:44;;;;;;;6.82;1.13;;;19.90;62.40;;;;;;4753499;30;20063;-77
2022/07/07 11:15:20;;;;;;;13.60;2.35;;;19.90;63.60;;;;;;4755184;30;20063;-78
2022/07/07 11:17:53;;;;;;;9.40;1.58;;;19.90;63.80;;;;;;4764076;30;20438;-77
2022/07/07 11:20:32;;;;;;;8.70;1.57;;;20.00;64.00;;;;;;4769624;30;20053;-79
2022/07/07 11:23:12;;;;;;;6.72;1.20;;;20.00;63.40;;;;;;4757244;30;20056;-77
2022/07/07 11:25:40;;;;;;;8.07;1.30;;;20.00;64.00;;;;;;4770859;30;20495;-78
2022/07/07 11:28:08;;;;;;;6.25;1.45;;;20.00;64.20;;;;;;4757129;30;20059;-78
2022/07/07 11:30:34;;;;;;;5.68;1.05;;;20.10;64.10;;;;;;4750044;30;20056;-77
2022/07/07 11:33:01;;;;;;;5.35;0.88;;;20.10;65.00;;;;;;4743050;30;20052;-79
2022/07/07 11:35:32;;;;;;;9.10;1.83;;;20.10;65.90;;;;;;4755864;30;20121;-79
2022/07/07 11:37:58;;;;;;;9.40;1.50;;;20.20;63.50;;;;;;4749474;30;20408;-79
2022/07/07 11:40:25;;;;;;;9.95;1.73;;;20.20;63.60;;;;;;4739235;30;20060;-77
2022/07/07 11:42:51;;;;;;;9.60;1.35;;;20.20;63.20;;;;;;4738490;30;20473;-79
2022/07/07 11:45:22;;;;;;;8.68;1.98;;;20.20;63.60;;;;;;4739095;30;20060;-78
2022/07/07 11:47:49;;;;;;;9.07;2.17;;;20.20;63.40;;;;;;4740068;30;20131;-80
2022/07/07 11:50:15;;;;;;;7.88;1.60;;;20.20;62.70;;;;;;4743022;30;20056;-77
2022/07/07 11:52:55;;;;;;;13.27;2.78;;;20.20;62.70;;;;;;4756658;30;20506;-78
2022/07/07 11:55:33;;;;;;;10.15;1.98;;;20.30;62.80;;;;;;4755028;30;20067;-82
2022/07/07 11:58:03;;;;;;;10.32;1.77;;;20.20;62.80;;;;;;4755898;30;20443;-77
2022/07/07 12:00:35;;;;;;;14.05;2.88;;;20.20;63.80;;;;;;4755617;30;20044;-78
2022/07/07 12:03:04;;;;;;;10.88;2.22;;;20.30;62.90;;;;;;4749797;30;20083;-81
2022/07/07 12:05:32;;;;;;;14.10;2.22;;;20.30;63.00;;;;;;4755534;30;20095;-78
2022/07/07 12:08:07;;;;;;;10.45;2.58;;;20.30;63.10;;;;;;4756183;30;20123;-80
2022/07/07 12:10:53;;;;;;;8.50;2.03;;;20.20;62.30;;;;;;4755249;30;20052;-81
2022/07/07 12:13:19;;;;;;;13.05;1.98;;;20.20;61.10;;;;;;4756321;30;20129;-79
2022/07/07 12:15:48;;;;;;;15.20;2.30;;;20.20;62.80;;;;;;4755450;30;20467;-74
2022/07/07 12:18:33;;;;;;;9.68;1.52;;;20.20;63.00;;;;;;4738520;30;20412;-83
2022/07/07 12:21:05;;;;;;;13.40;1.98;;;20.30;61.60;;;;;;4750021;30;20056;-78
2022/07/07 12:23:36;;;;;;;10.18;2.55;;;20.20;63.00;;;;;;4756285;30;20126;-79
2022/07/07 12:26:16;;;;;;;7.93;1.88;;;20.20;63.20;;;;;;4759726;30;20066;-78
2022/07/07 12:28:43;;;;;;;8.30;1.83;;;20.30;62.40;;;;;;4759530;30;20152;-78
2022/07/07 12:31:16;;;;;;;7.88;1.73;;;20.30;62.70;;;;;;4772752;30;20066;-76
2022/07/07 12:33:44;;;;;;;9.73;1.93;;;20.20;62.80;;;;;;4773688;30;20079;-76
2022/07/07 12:36:21;;;;;;;7.53;2.00;;;20.30;62.30;;;;;;4772097;30;20335;-78
2022/07/07 12:38:49;;;;;;;9.32;1.90;;;20.30;62.20;;;;;;4754523;30;20139;-82
2022/07/07 12:41:47;;;;;;;8.27;2.20;;;20.20;61.90;;;;;;4747723;30;20035;-79
2022/07/07 12:44:29;;;;;;;5.88;1.35;;;20.30;62.50;;;;;;4763404;30;20055;-77
2022/07/07 12:46:59;;;;;;;9.13;2.05;;;20.20;62.50;;;;;;4757660;30;20056;-78
2022/07/07 12:49:25;;;;;;;6.28;1.85;;;20.30;62.50;;;;;;4773039;30;20423;-79
2022/07/07 12:51:51;;;;;;;6.50;1.50;;;20.20;62.50;;;;;;4757855;30;20392;-80
2022/07/07 12:54:43;;;;;;;9.00;2.20;;;20.20;62.30;;;;;;4757756;30;20055;-79
2022/07/07 12:57:09;;;;;;;6.38;1.52;;;20.20;61.30;;;;;;4755053;30;20055;-78
2022/07/07 12:59:45;;;;;;;8.50;2.22;;;20.20;61.50;;;;;;4757854;30;20043;-77
2022/07/07 13:02:12;;;;;;;7.13;1.52;;;20.20;59.50;;;;;;4773275;30;20047;-84
2022/07/07 13:04:40;;;;;;;3.78;0.98;;;20.20;60.70;;;;;;4773035;30;20047;-78
2022/07/07 13:07:06;;;;;;;7.40;1.40;;;20.20;60.60;;;;;;4757585;30;20056;-78
2022/07/07 13:09:32;;;;;;;9.63;1.42;;;20.10;60.40;;;;;;4757220;30;20052;-78
2022/07/07 13:11:58;;;;;;;6.03;1.20;;;20.10;60.60;;;;;;4757417;30;20113;-78
2022/07/07 13:14:24;;;;;;;7.00;2.25;;;20.10;60.70;;;;;;4772609;30;20402;-79
2022/07/07 13:16:49;;;;;;;5.95;1.42;;;20.10;60.80;;;;;;4773021;30;20051;-78
2022/07/07 13:19:15;;;;;;;7.18;1.40;;;20.20;60.80;;;;;;4757392;30;20044;-78
2022/07/07 13:21:41;;;;;;;4.90;1.48;;;20.20;60.70;;;;;;4773007;30;20059;-79
2022/07/07 13:24:07;;;;;;;4.95;1.02;;;20.20;61.00;;;;;;4773049;30;20143;-79
2022/07/07 13:26:34;;;;;;;6.65;1.65;;;20.20;61.00;;;;;;4772818;30;20048;-79
2022/07/07 13:29:00;;;;;;;8.95;1.45;;;20.20;61.20;;;;;;4756985;30;20063;-78
2022/07/07 13:31:26;;;;;;;7.60;1.80;;;20.20;61.30;;;;;;4757203;30;20159;-78
2022/07/07 13:33:51;;;;;;;4.82;1.13;;;20.20;61.30;;;;;;4772685;30;20068;-78
2022/07/07 13:36:17;;;;;;;6.30;1.55;;;20.20;61.00;;;;;;4771925;30;20535;-78
2022/07/07 13:38:43;;;;;;;3.72;1.00;;;20.20;60.90;;;;;;4771791;30;20048;-78
2022/07/07 13:41:09;;;;;;;8.65;1.67;;;20.30;60.80;;;;;;4757201;30;20048;-79
2022/07/07 13:43:34;;;;;;;5.97;1.40;;;20.20;60.70;;;;;;4756435;30;20478;-77
2022/07/07 13:46:00;;;;;;;7.68;1.33;;;20.20;60.50;;;;;;4757343;30;20044;-77
2022/07/07 13:48:26;;;;;;;6.20;1.13;;;20.20;60.70;;;;;;4742279;30;20071;-78
2022/07/07 13:50:54;;;;;;;5.88;1.23;;;20.20;60.80;;;;;;4772360;30;20051;-78
2022/07/07 13:53:20;;;;;;;5.32;0.88;;;20.20;60.70;;;;;;4757099;30;20069;-78
2022/07/07 13:55:46;;;;;;;5.57;1.63;;;20.20;61.10;;;;;;4772452;30;20364;-78
2022/07/07 13:58:12;;;;;;;6.90;1.40;;;20.20;61.00;;;;;;4741721;30;20109;-82
2022/07/07 14:00:47;;;;;;;4.40;1.23;;;20.20;61.20;;;;;;4755805;30;20056;-80
2022/07/07 14:03:24;;;;;;;11.25;1.25;;;20.20;61.20;;;;;;4770681;30;20044;-79
2022/07/07 14:05:50;;;;;;;8.02;1.30;;;20.20;61.50;;;;;;4772123;30;20083;-79
2022/07/07 14:08:16;;;;;;;7.72;1.45;;;20.20;61.90;;;;;;4772243;30;20055;-79
2022/07/07 14:10:41;;;;;;;9.38;1.35;;;20.20;62.10;;;;;;4771734;30;20048;-79
2022/07/07 14:13:07;;;;;;;14.23;1.73;;;20.20;61.80;;;;;;4756054;30;20047;-80
2022/07/07 14:15:33;;;;;;;9.05;1.55;;;20.20;62.10;;;;;;4741541;30;20047;-78
2022/07/07 14:18:02;;;;;;;11.80;2.70;;;20.20;62.30;;;;;;4755839;30;20040;-79
2022/07/07 14:20:27;;;;;;;10.32;1.77;;;20.20;62.70;;;;;;4772160;30;20448;-78
2022/07/07 14:22:53;;;;;;;15.07;2.03;;;20.20;62.50;;;;;;4772267;30;20079;-76
2022/07/07 14:25:19;;;;;;;18.33;7.72;;;20.30;62.40;;;;;;4771471;30;20055;-80
2022/07/07 14:27:45;;;;;;;10.38;3.97;;;20.20;62.30;;;;;;4756352;30;20152;-78
2022/07/07 14:30:13;;;;;;;13.52;3.90;;;20.30;63.40;;;;;;4755967;30;20055;-82
2022/07/07 14:32:39;;;;;;;12.07;2.60;;;20.20;61.80;;;;;;4770767;30;20481;-82
2022/07/07 14:35:05;;;;;;;9.45;2.40;;;20.30;61.80;;;;;;4754752;30;20135;-80
2022/07/07 14:37:30;;;;;;;8.52;2.15;;;20.20;61.00;;;;;;4741218;30;20055;-80
2022/07/07 14:39:56;;;;;;;9.60;2.25;;;20.20;61.80;;;;;;4771855;30;20059;-76
2022/07/07 14:42:22;;;;;;;7.28;1.77;;;20.20;61.60;;;;;;4771717;30;20161;-81
2022/07/07 14:44:51;;;;;;;11.07;2.03;;;20.20;62.20;;;;;;4771484;30;20063;-84
2022/07/07 14:47:16;;;;;;;11.95;1.85;;;20.20;62.20;;;;;;4771962;30;20047;-79
2022/07/07 14:49:43;;;;;;;7.40;1.65;;;20.20;62.70;;;;;;4773578;30;20067;-84
2022/07/07 14:52:10;;;;;;;9.48;2.55;;;20.20;64.50;;;;;;4745274;30;20052;-82
2022/07/07 14:54:38;;;;;;;13.27;2.50;;;20.30;63.70;;;;;;4745241;30;20130;-80
2022/07/07 14:57:05;;;;;;;10.20;2.08;;;20.30;63.50;;;;;;4775625;30;20334;-79
2022/07/07 14:59:32;;;;;;;9.45;1.85;;;20.30;63.00;;;;;;4759509;30;20408;-81
2022/07/07 15:01:58;;;;;;;10.57;2.05;;;20.20;62.40;;;;;;4775290;30;20094;-80
2022/07/07 15:04:24;;;;;;;8.73;1.40;;;20.20;61.80;;;;;;4759896;30;20084;-82
2022/07/07 15:06:51;;;;;;;8.40;1.75;;;20.10;61.70;;;;;;4744775;30;20051;-80
2022/07/07 15:09:17;;;;;;;11.48;1.98;;;20.10;61.40;;;;;;4775355;30;20099;-81
2022/07/07 15:11:43;;;;;;;10.75;2.83;;;20.00;61.70;;;;;;4760095;30;20154;-82
2022/07/07 15:14:09;;;;;;;10.38;1.83;;;20.10;62.80;;;;;;4759736;30;20138;-79
2022/07/07 15:16:35;;;;;;;5.80;1.33;;;20.10;62.50;;;;;;4759265;30;20083;-78
2022/07/07 15:19:01;;;;;;;12.68;2.13;;;20.10;61.90;;;;;;4760187;30;20052;-78
2022/07/07 15:21:27;;;;;;;12.25;1.58;;;20.10;62.40;;;;;;4774194;30;20162;-80
2022/07/07 15:23:53;;;;;;;12.38;2.20;;;20.10;61.20;;;;;;4758691;30;20071;-77
2022/07/07 15:26:24;;;;;;;12.88;2.35;;;20.00;61.80;;;;;;4773879;30;20425;-81
2022/07/07 15:28:50;;;;;;;17.95;2.50;;;20.10;62.20;;;;;;4759024;30;20051;-80
2022/07/07 15:31:17;;;;;;;9.98;2.38;;;20.10;62.30;;;;;;4774997;30;20055;-79
2022/07/07 15:33:43;;;;;;;12.65;1.60;;;20.10;62.20;;;;;;4759103;30;20075;-81
2022/07/07 15:36:09;;;;;;;9.15;1.58;;;20.10;62.70;;;;;;4758990;30;20058;-82
2022/07/07 15:38:36;;;;;;;10.00;1.45;;;20.20;62.50;;;;;;4758850;30;20091;-81
2022/07/07 15:41:15;;;;;;;12.57;1.95;;;20.10;62.60;;;;;;4745097;30;20142;-82
2022/07/07 15:43:44;;;;;;;7.60;1.38;;;20.10;62.60;;;;;;4774784;30;20067;-80
2022/07/07 15:46:15;;;;;;;8.55;1.13;;;20.20;62.60;;;;;;4744585;30;20051;-78
2022/07/07 15:48:45;;;;;;;7.68;1.60;;;20.20;62.40;;;;;;4774103;30;20453;-80
2022/07/07 15:51:13;;;;;;;7.65;1.38;;;20.20;62.40;;;;;;4759130;30;20051;-81
2022/07/07 15:53:39;;;;;;;10.57;2.33;;;20.20;62.10;;;;;;4758970;30;20059;-79
2022/07/07 15:56:05;;;;;;;8.15;1.67;;;20.20;61.90;;;;;;4758467;30;20158;-81
2022/07/07 15:58:31;;;;;;;3.80;1.20;;;20.20;62.00;;;;;;4758658;30;20128;-79
2022/07/07 16:00:57;;;;;;;9.68;1.73;;;20.20;62.00;;;;;;4757984;30;20135;-81
2022/07/07 16:03:27;;;;;;;6.57;1.85;;;20.20;62.00;;;;;;4758294;30;20079;-82
2022/07/07 16:05:53;;;;;;;4.05;1.45;;;20.20;62.00;;;;;;4774473;30;20059;-80
2022/07/07 16:08:19;;;;;;;4.82;1.05;;;20.30;61.80;;;;;;4758314;30;20082;-79
2022/07/07 16:10:45;;;;;;;6.47;1.55;;;20.20;61.50;;;;;;4758760;30;20083;-78
2022/07/07 16:13:11;;;;;;;5.80;1.35;;;20.20;61.50;;;;;;4758477;30;20122;-81
2022/07/07 16:15:36;;;;;;;5.93;1.50;;;20.20;61.30;;;;;;4758064;30;20064;-79
2022/07/07 16:18:03;;;;;;;5.85;0.93;;;20.20;61.30;;;;;;4773484;30;20066;-79
2022/07/07 16:20:29;;;;;;;4.72;1.13;;;20.20;61.30;;;;;;4757832;30;20127;-80
2022/07/07 16:22:55;;;;;;;6.47;1.80;;;20.20;61.10;;;;;;4774070;30;20148;-79
2022/07/07 16:25:21;;;;;;;6.20;1.33;;;20.10;60.30;;;;;;4758702;30;20507;-79
2022/07/07 16:27:46;;;;;;;6.57;1.20;;;20.10;60.70;;;;;;4774572;30;20368;-80
2022/07/07 16:30:15;;;;;;;8.02;1.50;;;20.10;61.20;;;;;;4774083;30;20047;-81
2022/07/07 16:32:42;;;;;;;5.82;1.45;;;20.10;61.10;;;;;;4773909;30;20133;-80
2022/07/07 16:35:08;;;;;;;6.55;1.40;;;20.10;61.00;;;;;;4758239;30;20070;-81
2022/07/07 16:37:34;;;;;;;8.18;1.23;;;20.00;60.40;;;;;;4758020;30;20056;-81
2022/07/07 16:40:00;;;;;;;6.97;0.93;;;20.00;60.90;;;;;;4773435;30;20064;-80
2022/07/07 16:42:26;;;;;;;7.55;1.52;;;20.00;60.90;;;;;;4758138;30;20051;-80
2022/07/07 16:44:52;;;;;;;10.65;1.33;;;20.00;60.70;;;;;;4774315;30;20108;-80
2022/07/07 16:47:18;;;;;;;9.57;1.27;;;20.00;61.30;;;;;;4758556;30;20059;-80
2022/07/07 16:49:43;;;;;;;12.95;1.80;;;20.00;60.70;;;;;;4773280;30;20131;-79
2022/07/07 16:52:11;;;;;;;5.65;0.98;;;19.90;60.30;;;;;;4758114;30;20105;-79
2022/07/07 16:54:36;;;;;;;6.97;1.27;;;19.90;60.20;;;;;;4757954;30;20064;-80
2022/07/07 16:57:03;;;;;;;4.35;1.15;;;19.90;60.20;;;;;;4773353;30;20047;-79
2022/07/07 16:59:28;;;;;;;8.32;1.55;;;19.90;60.20;;;;;;4773624;30;20512;-79
2022/07/07 17:01:54;;;;;;;6.65;1.48;;;19.90;58.80;;;;;;4757543;30;20143;-79
2022/07/07 17:04:20;;;;;;;8.93;1.23;;;19.80;59.10;;;;;;4772921;30;20071;-80
2022/07/07 17:06:45;;;;;;;3.10;0.93;;;19.80;59.20;;;;;;4758205;30;20060;-82
2022/07/07 17:09:11;;;;;;;5.32;0.80;;;19.80;59.60;;;;;;4773385;30;20106;-80
2022/07/07 17:11:37;;;;;;;5.03;0.77;;;19.80;59.50;;;;;;4773196;30;20143;-78
2022/07/07 17:14:03;;;;;;;6.05;0.93;;;19.80;59.70;;;;;;4756946;30;20594;-80